sensor_id;sensor_type;location;lat;lon;timestamp;P1;durP1;ratioP1;P2;durP2;ratioP2
53646;SDS011;39550;52.230;5.194;2022-09-17T00:00:40;7.25;;;2.88;;
53646;SDS011;39550;52.230;5.194;2022-09-17T00:03:06;6.20;;;2.53;;
53646;SDS011;39550;52.230;5.194;2022-09-17T00:05:32;5.50;;;2.60;;
53646;SDS011;39550;52.230;5.194;2022-09-17T00:07:58;12.30;;;3.22;;
53646;SDS011;39550;52.230;5.194;2022-09-17T00:10:24;8.18;;;2.38;;
53646;SDS011;39550;52.230;5.194;2022-09-17T00:12:50;6.82;;;2.35;;
53646;SDS011;39550;52.230;5.194;2022-09-17T00:15:15;6.45;;;2.55;;
53646;SDS011;39550;52.230;5.194;2022-09-17T00:17:41;8.55;;;2.88;;
53646;SDS011;39550;52.230;5.194;2022-09-17T00:20:07;7.45;;;2.80;;
53646;SDS011;39550;52.230;5.194;2022-09-17T00:22:37;5.72;;;2.47;;
53646;SDS011;39550;52.230;5.194;2022-09-17T00:25:04;6.53;;;2.70;;
53646;SDS011;39550;52.230;5.194;2022-09-17T00:27:31;6.25;;;2.70;;
53646;SDS011;39550;52.230;5.194;2022-09-17T00:29:56;6.25;;;2.35;;
53646;SDS011;39550;52.230;5.194;2022-09-17T00:32:22;4.47;;;2.10;;
53646;SDS011;39550;52.230;5.194;2022-09-17T00:34:48;5.97;;;2.40;;
53646;SDS011;39550;52.230;5.194;2022-09-17T00:37:16;5.38;;;2.58;;
53646;SDS011;39550;52.230;5.194;2022-09-17T00:39:44;6.65;;;2.40;;
53646;SDS011;39550;52.230;5.194;2022-09-17T00:42:13;7.40;;;3.08;;
53646;SDS011;39550;52.230;5.194;2022-09-17T00:47:15;6.63;;;2.50;;
53646;SDS011;39550;52.230;5.194;2022-09-17T00:49:44;6.97;;;2.45;;
53646;SDS011;39550;52.230;5.194;2022-09-17T00:52:12;8.63;;;2.40;;
53646;SDS011;39550;52.230;5.194;2022-09-17T00:54:43;9.40;;;2.60;;
53646;SDS011;39550;52.230;5.194;2022-09-17T00:57:13;6.28;;;2.20;;
53646;SDS011;39550;52.230;5.194;2022-09-17T00:59:39;6.45;;;2.58;;
53646;SDS011;39550;52.230;5.194;2022-09-17T01:02:05;7.20;;;2.35;;
53646;SDS011;39550;52.230;5.194;2022-09-17T01:04:31;6.97;;;2.60;;
53646;SDS011;39550;52.230;5.194;2022-09-17T01:15:00;5.77;;;2.40;;
53646;SDS011;39550;52.230;5.194;2022-09-17T01:18:09;4.63;;;2.10;;
53646;SDS011;39550;52.230;5.194;2022-09-17T01:23:45;8.02;;;2.90;;
53646;SDS011;39550;52.230;5.194;2022-09-17T01:32:29;6.35;;;2.40;;
53646;SDS011;39550;52.230;5.194;2022-09-17T01:35:10;6.55;;;2.30;;
53646;SDS011;39550;52.230;5.194;2022-09-17T01:37:51;5.45;;;2.40;;
53646;SDS011;39550;52.230;5.194;2022-09-17T01:40:25;6.80;;;2.20;;
53646;SDS011;39550;52.230;5.194;2022-09-17T01:43:02;4.72;;;2.00;;
53646;SDS011;39550;52.230;5.194;2022-09-17T01:45:40;5.28;;;2.42;;
53646;SDS011;39550;52.230;5.194;2022-09-17T01:50:51;4.30;;;2.10;;
53646;SDS011;39550;52.230;5.194;2022-09-17T01:53:21;11.35;;;2.35;;
53646;SDS011;39550;52.230;5.194;2022-09-17T01:55:50;6.90;;;2.25;;
53646;SDS011;39550;52.230;5.194;2022-09-17T01:58:20;6.25;;;2.45;;
53646;SDS011;39550;52.230;5.194;2022-09-17T02:00:51;4.38;;;2.20;;
53646;SDS011;39550;52.230;5.194;2022-09-17T02:03:28;5.20;;;2.30;;
53646;SDS011;39550;52.230;5.194;2022-09-17T02:08:37;5.00;;;2.00;;
53646;SDS011;39550;52.230;5.194;2022-09-17T02:11:08;5.82;;;2.22;;
53646;SDS011;39550;52.230;5.194;2022-09-17T02:16:21;6.57;;;2.42;;
53646;SDS011;39550;52.230;5.194;2022-09-17T02:21:52;4.25;;;2.00;;
53646;SDS011;39550;52.230;5.194;2022-09-17T02:24:29;4.80;;;2.15;;
53646;SDS011;39550;52.230;5.194;2022-09-17T02:27:06;6.00;;;1.95;;
53646;SDS011;39550;52.230;5.194;2022-09-17T02:29:43;7.70;;;2.78;;
53646;SDS011;39550;52.230;5.194;2022-09-17T02:32:09;6.50;;;2.40;;
53646;SDS011;39550;52.230;5.194;2022-09-17T02:34:37;4.32;;;1.77;;
53646;SDS011;39550;52.230;5.194;2022-09-17T02:37:03;5.00;;;1.98;;
53646;SDS011;39550;52.230;5.194;2022-09-17T02:39:29;5.60;;;2.22;;
53646;SDS011;39550;52.230;5.194;2022-09-17T02:42:17;6.00;;;2.53;;
53646;SDS011;39550;52.230;5.194;2022-09-17T02:47:56;5.15;;;2.20;;
53646;SDS011;39550;52.230;5.194;2022-09-17T02:50:29;5.50;;;2.05;;
53646;SDS011;39550;52.230;5.194;2022-09-17T03:01:03;5.90;;;2.13;;
53646;SDS011;39550;52.230;5.194;2022-09-17T03:03:37;5.70;;;2.08;;
53646;SDS011;39550;52.230;5.194;2022-09-17T03:06:05;6.78;;;2.30;;
53646;SDS011;39550;52.230;5.194;2022-09-17T03:08:32;6.50;;;2.65;;
53646;SDS011;39550;52.230;5.194;2022-09-17T03:11:01;5.07;;;2.00;;
53646;SDS011;39550;52.230;5.194;2022-09-17T03:13:26;6.20;;;2.25;;
53646;SDS011;39550;52.230;5.194;2022-09-17T03:15:52;6.72;;;2.30;;
53646;SDS011;39550;52.230;5.194;2022-09-17T03:18:17;6.55;;;2.17;;
53646;SDS011;39550;52.230;5.194;2022-09-17T03:20:42;5.65;;;2.30;;
53646;SDS011;39550;52.230;5.194;2022-09-17T03:23:07;7.88;;;2.67;;
53646;SDS011;39550;52.230;5.194;2022-09-17T03:25:33;4.35;;;2.13;;
53646;SDS011;39550;52.230;5.194;2022-09-17T03:27:58;9.20;;;2.25;;
53646;SDS011;39550;52.230;5.194;2022-09-17T03:30:24;5.72;;;2.20;;
53646;SDS011;39550;52.230;5.194;2022-09-17T03:32:49;4.82;;;2.00;;
53646;SDS011;39550;52.230;5.194;2022-09-17T03:35:14;5.47;;;2.20;;
53646;SDS011;39550;52.230;5.194;2022-09-17T03:37:39;8.52;;;2.58;;
53646;SDS011;39550;52.230;5.194;2022-09-17T03:40:05;8.85;;;2.60;;
53646;SDS011;39550;52.230;5.194;2022-09-17T03:42:31;5.47;;;1.80;;
53646;SDS011;39550;52.230;5.194;2022-09-17T03:44:56;4.50;;;2.10;;
53646;SDS011;39550;52.230;5.194;2022-09-17T03:47:21;5.78;;;2.25;;
53646;SDS011;39550;52.230;5.194;2022-09-17T03:49:47;6.30;;;2.47;;
53646;SDS011;39550;52.230;5.194;2022-09-17T03:52:12;5.72;;;2.00;;
53646;SDS011;39550;52.230;5.194;2022-09-17T03:54:37;5.22;;;2.50;;
53646;SDS011;39550;52.230;5.194;2022-09-17T03:57:03;4.57;;;2.03;;
53646;SDS011;39550;52.230;5.194;2022-09-17T03:59:28;4.57;;;2.28;;
53646;SDS011;39550;52.230;5.194;2022-09-17T04:01:54;5.65;;;2.10;;
53646;SDS011;39550;52.230;5.194;2022-09-17T04:04:19;7.05;;;2.55;;
53646;SDS011;39550;52.230;5.194;2022-09-17T04:06:44;7.07;;;2.65;;
53646;SDS011;39550;52.230;5.194;2022-09-17T04:09:09;8.27;;;2.42;;
53646;SDS011;39550;52.230;5.194;2022-09-17T04:11:35;4.95;;;2.20;;
53646;SDS011;39550;52.230;5.194;2022-09-17T04:14:00;6.97;;;1.95;;
53646;SDS011;39550;52.230;5.194;2022-09-17T04:16:25;5.38;;;2.17;;
53646;SDS011;39550;52.230;5.194;2022-09-17T04:18:51;5.63;;;2.00;;
53646;SDS011;39550;52.230;5.194;2022-09-17T04:21:16;6.00;;;2.28;;
53646;SDS011;39550;52.230;5.194;2022-09-17T04:23:41;6.43;;;1.90;;
53646;SDS011;39550;52.230;5.194;2022-09-17T04:26:06;6.28;;;1.92;;
53646;SDS011;39550;52.230;5.194;2022-09-17T04:28:32;4.93;;;1.90;;
53646;SDS011;39550;52.230;5.194;2022-09-17T04:30:57;5.07;;;1.98;;
53646;SDS011;39550;52.230;5.194;2022-09-17T04:33:22;4.82;;;2.08;;
53646;SDS011;39550;52.230;5.194;2022-09-17T04:35:48;7.32;;;2.15;;
53646;SDS011;39550;52.230;5.194;2022-09-17T04:38:13;5.82;;;2.50;;
53646;SDS011;39550;52.230;5.194;2022-09-17T04:40:42;5.30;;;1.85;;
53646;SDS011;39550;52.230;5.194;2022-09-17T04:43:08;4.20;;;2.03;;
53646;SDS011;39550;52.230;5.194;2022-09-17T04:45:34;8.20;;;2.50;;
53646;SDS011;39550;52.230;5.194;2022-09-17T04:48:00;6.93;;;2.22;;
53646;SDS011;39550;52.230;5.194;2022-09-17T04:50:26;5.93;;;1.95;;
53646;SDS011;39550;52.230;5.194;2022-09-17T04:52:52;5.75;;;2.20;;
53646;SDS011;39550;52.230;5.194;2022-09-17T04:55:17;3.63;;;1.70;;
53646;SDS011;39550;52.230;5.194;2022-09-17T04:57:46;4.72;;;2.20;;
53646;SDS011;39550;52.230;5.194;2022-09-17T05:00:12;4.38;;;1.70;;
53646;SDS011;39550;52.230;5.194;2022-09-17T05:02:38;4.75;;;1.98;;
53646;SDS011;39550;52.230;5.194;2022-09-17T05:05:03;3.83;;;1.90;;
53646;SDS011;39550;52.230;5.194;2022-09-17T05:07:29;5.57;;;1.95;;
53646;SDS011;39550;52.230;5.194;2022-09-17T05:09:54;4.63;;;1.80;;
53646;SDS011;39550;52.230;5.194;2022-09-17T05:12:19;6.32;;;2.00;;
53646;SDS011;39550;52.230;5.194;2022-09-17T05:14:44;3.90;;;1.75;;
53646;SDS011;39550;52.230;5.194;2022-09-17T05:17:10;4.05;;;1.77;;
53646;SDS011;39550;52.230;5.194;2022-09-17T05:19:35;5.55;;;2.08;;
53646;SDS011;39550;52.230;5.194;2022-09-17T05:22:00;4.45;;;1.73;;
53646;SDS011;39550;52.230;5.194;2022-09-17T05:24:26;3.88;;;1.73;;
53646;SDS011;39550;52.230;5.194;2022-09-17T05:26:51;3.90;;;1.95;;
53646;SDS011;39550;52.230;5.194;2022-09-17T05:29:17;4.80;;;1.70;;
53646;SDS011;39550;52.230;5.194;2022-09-17T05:31:42;5.13;;;1.90;;
53646;SDS011;39550;52.230;5.194;2022-09-17T05:34:07;4.38;;;1.80;;
53646;SDS011;39550;52.230;5.194;2022-09-17T05:36:33;4.93;;;1.80;;
53646;SDS011;39550;52.230;5.194;2022-09-17T05:38:58;4.68;;;1.90;;
53646;SDS011;39550;52.230;5.194;2022-09-17T05:41:23;4.00;;;2.22;;
53646;SDS011;39550;52.230;5.194;2022-09-17T05:43:49;4.63;;;1.90;;
53646;SDS011;39550;52.230;5.194;2022-09-17T05:46:15;4.82;;;1.80;;
53646;SDS011;39550;52.230;5.194;2022-09-17T05:48:40;4.85;;;1.60;;
53646;SDS011;39550;52.230;5.194;2022-09-17T05:51:05;4.90;;;1.90;;
53646;SDS011;39550;52.230;5.194;2022-09-17T05:53:30;4.22;;;1.92;;
53646;SDS011;39550;52.230;5.194;2022-09-17T05:55:56;5.95;;;2.03;;
53646;SDS011;39550;52.230;5.194;2022-09-17T05:58:22;5.30;;;1.90;;
53646;SDS011;39550;52.230;5.194;2022-09-17T06:00:48;5.03;;;1.90;;
53646;SDS011;39550;52.230;5.194;2022-09-17T06:03:14;4.93;;;1.80;;
53646;SDS011;39550;52.230;5.194;2022-09-17T06:05:41;7.35;;;1.90;;
53646;SDS011;39550;52.230;5.194;2022-09-17T06:08:06;4.25;;;1.60;;
53646;SDS011;39550;52.230;5.194;2022-09-17T06:10:34;4.93;;;1.98;;
53646;SDS011;39550;52.230;5.194;2022-09-17T06:13:01;4.68;;;1.60;;
53646;SDS011;39550;52.230;5.194;2022-09-17T06:15:27;3.58;;;1.65;;
53646;SDS011;39550;52.230;5.194;2022-09-17T06:17:52;5.68;;;1.80;;
53646;SDS011;39550;52.230;5.194;2022-09-17T06:20:18;6.13;;;2.38;;
53646;SDS011;39550;52.230;5.194;2022-09-17T06:22:44;4.68;;;2.65;;
53646;SDS011;39550;52.230;5.194;2022-09-17T06:25:09;5.15;;;1.88;;
53646;SDS011;39550;52.230;5.194;2022-09-17T06:27:35;4.18;;;1.73;;
53646;SDS011;39550;52.230;5.194;2022-09-17T06:30:00;3.42;;;1.90;;
53646;SDS011;39550;52.230;5.194;2022-09-17T06:32:26;4.82;;;2.10;;
53646;SDS011;39550;52.230;5.194;2022-09-17T06:34:53;4.40;;;1.60;;
53646;SDS011;39550;52.230;5.194;2022-09-17T06:37:20;4.05;;;1.67;;
53646;SDS011;39550;52.230;5.194;2022-09-17T06:39:52;4.15;;;2.15;;
53646;SDS011;39550;52.230;5.194;2022-09-17T06:42:18;4.32;;;1.85;;
53646;SDS011;39550;52.230;5.194;2022-09-17T06:44:43;6.28;;;2.40;;
53646;SDS011;39550;52.230;5.194;2022-09-17T06:47:09;6.13;;;1.88;;
53646;SDS011;39550;52.230;5.194;2022-09-17T06:49:34;4.18;;;1.88;;
53646;SDS011;39550;52.230;5.194;2022-09-17T06:51:59;5.68;;;2.28;;
53646;SDS011;39550;52.230;5.194;2022-09-17T06:54:24;7.03;;;2.20;;
53646;SDS011;39550;52.230;5.194;2022-09-17T06:56:50;6.15;;;2.45;;
53646;SDS011;39550;52.230;5.194;2022-09-17T06:59:15;6.55;;;2.30;;
53646;SDS011;39550;52.230;5.194;2022-09-17T07:01:41;5.80;;;2.15;;
53646;SDS011;39550;52.230;5.194;2022-09-17T07:04:07;5.60;;;2.22;;
53646;SDS011;39550;52.230;5.194;2022-09-17T07:06:33;7.85;;;2.30;;
53646;SDS011;39550;52.230;5.194;2022-09-17T07:08:58;4.15;;;1.88;;
53646;SDS011;39550;52.230;5.194;2022-09-17T07:11:23;6.85;;;2.72;;
53646;SDS011;39550;52.230;5.194;2022-09-17T07:13:49;5.90;;;2.10;;
53646;SDS011;39550;52.230;5.194;2022-09-17T07:16:14;5.18;;;1.95;;
53646;SDS011;39550;52.230;5.194;2022-09-17T07:18:39;8.57;;;1.95;;
53646;SDS011;39550;52.230;5.194;2022-09-17T07:21:05;7.68;;;2.83;;
53646;SDS011;39550;52.230;5.194;2022-09-17T07:23:31;6.47;;;2.03;;
53646;SDS011;39550;52.230;5.194;2022-09-17T07:25:59;4.25;;;1.98;;
53646;SDS011;39550;52.230;5.194;2022-09-17T07:28:26;6.95;;;2.20;;
53646;SDS011;39550;52.230;5.194;2022-09-17T07:30:53;6.63;;;2.22;;
53646;SDS011;39550;52.230;5.194;2022-09-17T07:33:19;5.07;;;2.13;;
53646;SDS011;39550;52.230;5.194;2022-09-17T07:36:00;5.90;;;2.20;;
53646;SDS011;39550;52.230;5.194;2022-09-17T07:40:54;4.95;;;1.92;;
53646;SDS011;39550;52.230;5.194;2022-09-17T07:43:22;4.32;;;2.08;;
53646;SDS011;39550;52.230;5.194;2022-09-17T07:45:48;7.57;;;2.20;;
53646;SDS011;39550;52.230;5.194;2022-09-17T07:48:13;4.13;;;2.00;;
53646;SDS011;39550;52.230;5.194;2022-09-17T07:50:39;5.60;;;1.90;;
53646;SDS011;39550;52.230;5.194;2022-09-17T07:53:04;4.65;;;1.92;;
53646;SDS011;39550;52.230;5.194;2022-09-17T07:55:30;6.18;;;2.08;;
53646;SDS011;39550;52.230;5.194;2022-09-17T07:57:55;4.18;;;1.85;;
53646;SDS011;39550;52.230;5.194;2022-09-17T08:00:20;4.47;;;2.20;;
53646;SDS011;39550;52.230;5.194;2022-09-17T08:02:51;5.50;;;2.00;;
53646;SDS011;39550;52.230;5.194;2022-09-17T08:05:18;5.65;;;1.70;;
53646;SDS011;39550;52.230;5.194;2022-09-17T08:07:43;4.03;;;1.75;;
53646;SDS011;39550;52.230;5.194;2022-09-17T08:10:08;7.68;;;2.70;;
53646;SDS011;39550;52.230;5.194;2022-09-17T08:12:33;6.45;;;2.00;;
53646;SDS011;39550;52.230;5.194;2022-09-17T08:14:59;6.65;;;2.05;;
53646;SDS011;39550;52.230;5.194;2022-09-17T08:17:24;5.80;;;2.40;;
53646;SDS011;39550;52.230;5.194;2022-09-17T08:19:50;4.53;;;1.77;;
53646;SDS011;39550;52.230;5.194;2022-09-17T08:22:15;4.63;;;1.85;;
53646;SDS011;39550;52.230;5.194;2022-09-17T08:24:40;5.95;;;1.80;;
53646;SDS011;39550;52.230;5.194;2022-09-17T08:27:06;5.10;;;1.83;;
53646;SDS011;39550;52.230;5.194;2022-09-17T08:29:31;3.75;;;1.83;;
53646;SDS011;39550;52.230;5.194;2022-09-17T08:31:57;4.65;;;1.83;;
53646;SDS011;39550;52.230;5.194;2022-09-17T08:34:22;3.10;;;1.60;;
53646;SDS011;39550;52.230;5.194;2022-09-17T08:36:48;6.53;;;2.10;;
53646;SDS011;39550;52.230;5.194;2022-09-17T08:39:13;4.30;;;1.63;;
53646;SDS011;39550;52.230;5.194;2022-09-17T08:49:06;7.82;;;2.00;;
53646;SDS011;39550;52.230;5.194;2022-09-17T08:54:35;6.97;;;1.92;;
53646;SDS011;39550;52.230;5.194;2022-09-17T09:00:03;15.95;;;2.70;;
53646;SDS011;39550;52.230;5.194;2022-09-17T09:05:42;9.15;;;2.25;;
53646;SDS011;39550;52.230;5.194;2022-09-17T09:10:48;4.78;;;1.83;;
53646;SDS011;39550;52.230;5.194;2022-09-17T09:13:18;6.65;;;2.30;;
53646;SDS011;39550;52.230;5.194;2022-09-17T09:15:47;11.35;;;3.17;;
53646;SDS011;39550;52.230;5.194;2022-09-17T09:18:19;19.05;;;2.45;;
53646;SDS011;39550;52.230;5.194;2022-09-17T09:21:03;11.25;;;2.47;;
53646;SDS011;39550;52.230;5.194;2022-09-17T09:30:00;7.53;;;2.17;;
53646;SDS011;39550;52.230;5.194;2022-09-17T09:40:40;7.27;;;2.10;;
53646;SDS011;39550;52.230;5.194;2022-09-17T09:45:55;7.50;;;2.40;;
53646;SDS011;39550;52.230;5.194;2022-09-17T09:57:38;11.40;;;2.65;;
53646;SDS011;39550;52.230;5.194;2022-09-17T10:02:51;5.47;;;1.92;;
53646;SDS011;39550;52.230;5.194;2022-09-17T10:05:27;5.38;;;2.10;;
53646;SDS011;39550;52.230;5.194;2022-09-17T10:07:53;7.35;;;2.22;;
53646;SDS011;39550;52.230;5.194;2022-09-17T10:10:19;5.38;;;1.70;;
53646;SDS011;39550;52.230;5.194;2022-09-17T10:12:44;5.35;;;1.98;;
53646;SDS011;39550;52.230;5.194;2022-09-17T10:15:26;3.88;;;1.77;;
53646;SDS011;39550;52.230;5.194;2022-09-17T10:18:10;4.85;;;2.00;;
53646;SDS011;39550;52.230;5.194;2022-09-17T10:20:50;6.03;;;2.17;;
53646;SDS011;39550;52.230;5.194;2022-09-17T10:23:21;4.10;;;1.63;;
53646;SDS011;39550;52.230;5.194;2022-09-17T10:25:49;3.78;;;1.77;;
53646;SDS011;39550;52.230;5.194;2022-09-17T10:28:32;3.67;;;2.00;;
53646;SDS011;39550;52.230;5.194;2022-09-17T10:31:09;3.20;;;1.60;;
53646;SDS011;39550;52.230;5.194;2022-09-17T10:34:17;4.70;;;1.80;;
53646;SDS011;39550;52.230;5.194;2022-09-17T10:36:43;5.15;;;1.98;;
53646;SDS011;39550;52.230;5.194;2022-09-17T10:42:05;6.22;;;2.30;;
53646;SDS011;39550;52.230;5.194;2022-09-17T10:47:16;5.38;;;2.20;;
53646;SDS011;39550;52.230;5.194;2022-09-17T10:52:40;8.38;;;2.72;;
53646;SDS011;39550;52.230;5.194;2022-09-17T11:01:43;8.98;;;2.90;;
53646;SDS011;39550;52.230;5.194;2022-09-17T11:04:28;6.63;;;2.10;;
53646;SDS011;39550;52.230;5.194;2022-09-17T11:18:01;9.18;;;2.58;;
53646;SDS011;39550;52.230;5.194;2022-09-17T11:21:18;8.95;;;2.40;;
53646;SDS011;39550;52.230;5.194;2022-09-17T11:23:57;9.90;;;2.83;;
53646;SDS011;39550;52.230;5.194;2022-09-17T11:26:38;8.90;;;2.28;;
53646;SDS011;39550;52.230;5.194;2022-09-17T11:34:56;8.25;;;2.15;;
53646;SDS011;39550;52.230;5.194;2022-09-17T11:37:34;7.95;;;2.28;;
53646;SDS011;39550;52.230;5.194;2022-09-17T11:43:36;7.68;;;2.25;;
53646;SDS011;39550;52.230;5.194;2022-09-17T11:46:11;7.97;;;2.42;;
53646;SDS011;39550;52.230;5.194;2022-09-17T11:48:52;10.68;;;2.90;;
53646;SDS011;39550;52.230;5.194;2022-09-17T11:52:01;9.07;;;2.53;;
53646;SDS011;39550;52.230;5.194;2022-09-17T11:57:25;8.48;;;2.60;;
53646;SDS011;39550;52.230;5.194;2022-09-17T12:05:35;8.10;;;2.47;;
53646;SDS011;39550;52.230;5.194;2022-09-17T12:14:00;7.25;;;2.08;;
53646;SDS011;39550;52.230;5.194;2022-09-17T12:16:32;5.65;;;2.42;;
53646;SDS011;39550;52.230;5.194;2022-09-17T12:19:11;7.22;;;2.40;;
53646;SDS011;39550;52.230;5.194;2022-09-17T12:21:48;8.18;;;2.72;;
53646;SDS011;39550;52.230;5.194;2022-09-17T12:24:39;5.93;;;2.50;;
53646;SDS011;39550;52.230;5.194;2022-09-17T12:46:31;5.47;;;2.10;;
53646;SDS011;39550;52.230;5.194;2022-09-17T12:57:03;5.35;;;2.30;;
53646;SDS011;39550;52.230;5.194;2022-09-17T13:00:24;6.50;;;2.65;;
53646;SDS011;39550;52.230;5.194;2022-09-17T13:10:40;5.75;;;2.30;;
53646;SDS011;39550;52.230;5.194;2022-09-17T13:18:36;7.43;;;2.30;;
53646;SDS011;39550;52.230;5.194;2022-09-17T13:21:14;10.43;;;2.90;;
53646;SDS011;39550;52.230;5.194;2022-09-17T13:23:46;8.75;;;2.00;;
53646;SDS011;39550;52.230;5.194;2022-09-17T13:26:14;7.47;;;2.05;;
53646;SDS011;39550;52.230;5.194;2022-09-17T13:28:47;12.40;;;2.45;;
53646;SDS011;39550;52.230;5.194;2022-09-17T13:31:20;8.98;;;2.78;;
53646;SDS011;39550;52.230;5.194;2022-09-17T13:36:49;13.80;;;2.78;;
53646;SDS011;39550;52.230;5.194;2022-09-17T13:39:35;9.52;;;2.33;;
53646;SDS011;39550;52.230;5.194;2022-09-17T13:44:44;12.10;;;2.30;;
53646;SDS011;39550;52.230;5.194;2022-09-17T13:47:25;11.55;;;2.53;;
53646;SDS011;39550;52.230;5.194;2022-09-17T13:49:56;9.43;;;3.33;;
53646;SDS011;39550;52.230;5.194;2022-09-17T13:52:32;10.43;;;3.00;;
53646;SDS011;39550;52.230;5.194;2022-09-17T13:57:59;10.35;;;2.92;;
53646;SDS011;39550;52.230;5.194;2022-09-17T14:13:47;20.13;;;3.50;;
53646;SDS011;39550;52.230;5.194;2022-09-17T14:16:47;12.52;;;3.00;;
53646;SDS011;39550;52.230;5.194;2022-09-17T14:19:24;9.18;;;2.42;;
53646;SDS011;39550;52.230;5.194;2022-09-17T14:24:33;10.45;;;2.83;;
53646;SDS011;39550;52.230;5.194;2022-09-17T14:35:15;17.15;;;3.88;;
53646;SDS011;39550;52.230;5.194;2022-09-17T14:37:54;16.50;;;4.07;;
53646;SDS011;39550;52.230;5.194;2022-09-17T14:40:23;9.13;;;3.53;;
53646;SDS011;39550;52.230;5.194;2022-09-17T14:42:51;7.65;;;2.83;;
53646;SDS011;39550;52.230;5.194;2022-09-17T14:45:30;9.23;;;3.03;;
53646;SDS011;39550;52.230;5.194;2022-09-17T14:48:17;9.47;;;2.80;;
53646;SDS011;39550;52.230;5.194;2022-09-17T14:53:43;8.82;;;2.65;;
53646;SDS011;39550;52.230;5.194;2022-09-17T14:56:43;13.98;;;3.75;;
53646;SDS011;39550;52.230;5.194;2022-09-17T14:59:34;10.90;;;3.20;;
53646;SDS011;39550;52.230;5.194;2022-09-17T15:05:25;13.80;;;3.25;;
53646;SDS011;39550;52.230;5.194;2022-09-17T15:10:44;12.00;;;2.60;;
53646;SDS011;39550;52.230;5.194;2022-09-17T15:13:24;8.27;;;2.70;;
53646;SDS011;39550;52.230;5.194;2022-09-17T15:15:51;13.88;;;2.70;;
53646;SDS011;39550;52.230;5.194;2022-09-17T15:18:19;12.82;;;3.20;;
53646;SDS011;39550;52.230;5.194;2022-09-17T15:20:47;8.95;;;2.92;;
53646;SDS011;39550;52.230;5.194;2022-09-17T15:23:22;7.80;;;3.40;;
53646;SDS011;39550;52.230;5.194;2022-09-17T15:25:51;8.00;;;2.78;;
53646;SDS011;39550;52.230;5.194;2022-09-17T15:28:33;9.30;;;3.15;;
53646;SDS011;39550;52.230;5.194;2022-09-17T15:31:03;9.23;;;2.88;;
53646;SDS011;39550;52.230;5.194;2022-09-17T15:33:30;10.45;;;3.03;;
53646;SDS011;39550;52.230;5.194;2022-09-17T15:36:00;9.55;;;3.33;;
53646;SDS011;39550;52.230;5.194;2022-09-17T15:38:41;9.98;;;3.28;;
53646;SDS011;39550;52.230;5.194;2022-09-17T15:41:20;9.00;;;2.90;;
53646;SDS011;39550;52.230;5.194;2022-09-17T15:43:49;9.32;;;2.65;;
53646;SDS011;39550;52.230;5.194;2022-09-17T15:48:51;13.20;;;3.22;;
53646;SDS011;39550;52.230;5.194;2022-09-17T15:51:36;9.50;;;2.65;;
53646;SDS011;39550;52.230;5.194;2022-09-17T15:54:03;10.90;;;3.40;;
53646;SDS011;39550;52.230;5.194;2022-09-17T15:56:30;7.70;;;2.85;;
53646;SDS011;39550;52.230;5.194;2022-09-17T16:01:48;7.88;;;2.65;;
53646;SDS011;39550;52.230;5.194;2022-09-17T16:12:17;6.80;;;2.38;;
53646;SDS011;39550;52.230;5.194;2022-09-17T16:14:48;7.97;;;2.90;;
53646;SDS011;39550;52.230;5.194;2022-09-17T16:17:19;6.85;;;2.97;;
53646;SDS011;39550;52.230;5.194;2022-09-17T16:19:47;6.97;;;2.70;;
53646;SDS011;39550;52.230;5.194;2022-09-17T16:22:12;10.27;;;2.97;;
53646;SDS011;39550;52.230;5.194;2022-09-17T16:24:38;7.85;;;2.55;;
53646;SDS011;39550;52.230;5.194;2022-09-17T16:27:03;10.45;;;2.80;;
53646;SDS011;39550;52.230;5.194;2022-09-17T16:29:29;7.30;;;2.50;;
53646;SDS011;39550;52.230;5.194;2022-09-17T16:31:55;10.63;;;2.55;;
53646;SDS011;39550;52.230;5.194;2022-09-17T16:34:20;9.43;;;2.78;;
53646;SDS011;39550;52.230;5.194;2022-09-17T16:36:46;6.03;;;2.40;;
53646;SDS011;39550;52.230;5.194;2022-09-17T16:39:11;5.78;;;2.45;;
53646;SDS011;39550;52.230;5.194;2022-09-17T16:41:36;6.70;;;2.63;;
53646;SDS011;39550;52.230;5.194;2022-09-17T16:44:01;7.20;;;2.33;;
53646;SDS011;39550;52.230;5.194;2022-09-17T16:46:28;8.48;;;2.50;;
53646;SDS011;39550;52.230;5.194;2022-09-17T16:48:53;4.85;;;1.98;;
53646;SDS011;39550;52.230;5.194;2022-09-17T16:51:18;6.85;;;2.50;;
53646;SDS011;39550;52.230;5.194;2022-09-17T16:53:44;6.90;;;2.67;;
53646;SDS011;39550;52.230;5.194;2022-09-17T16:56:10;4.38;;;2.30;;
53646;SDS011;39550;52.230;5.194;2022-09-17T16:58:37;6.57;;;2.63;;
53646;SDS011;39550;52.230;5.194;2022-09-17T17:01:13;5.60;;;2.30;;
53646;SDS011;39550;52.230;5.194;2022-09-17T17:03:40;7.10;;;2.30;;
53646;SDS011;39550;52.230;5.194;2022-09-17T17:06:06;6.13;;;2.28;;
53646;SDS011;39550;52.230;5.194;2022-09-17T17:08:42;5.93;;;2.10;;
53646;SDS011;39550;52.230;5.194;2022-09-17T17:11:08;5.20;;;2.28;;
53646;SDS011;39550;52.230;5.194;2022-09-17T17:13:33;5.78;;;1.88;;
53646;SDS011;39550;52.230;5.194;2022-09-17T17:16:04;6.80;;;2.28;;
53646;SDS011;39550;52.230;5.194;2022-09-17T17:18:30;6.95;;;2.25;;
53646;SDS011;39550;52.230;5.194;2022-09-17T17:20:55;6.60;;;2.35;;
53646;SDS011;39550;52.230;5.194;2022-09-17T17:23:28;4.63;;;1.95;;
53646;SDS011;39550;52.230;5.194;2022-09-17T17:25:53;5.13;;;2.08;;
53646;SDS011;39550;52.230;5.194;2022-09-17T17:28:19;7.82;;;2.30;;
53646;SDS011;39550;52.230;5.194;2022-09-17T17:30:45;6.28;;;2.17;;
53646;SDS011;39550;52.230;5.194;2022-09-17T17:33:11;6.43;;;2.58;;
53646;SDS011;39550;52.230;5.194;2022-09-17T17:35:39;6.75;;;2.60;;
53646;SDS011;39550;52.230;5.194;2022-09-17T17:38:05;4.93;;;2.28;;
53646;SDS011;39550;52.230;5.194;2022-09-17T17:40:30;5.75;;;2.15;;
53646;SDS011;39550;52.230;5.194;2022-09-17T17:42:56;4.40;;;2.00;;
53646;SDS011;39550;52.230;5.194;2022-09-17T17:45:21;5.10;;;2.10;;
53646;SDS011;39550;52.230;5.194;2022-09-17T17:47:46;5.38;;;2.00;;
53646;SDS011;39550;52.230;5.194;2022-09-17T17:50:12;3.95;;;1.90;;
53646;SDS011;39550;52.230;5.194;2022-09-17T17:52:37;7.03;;;2.10;;
53646;SDS011;39550;52.230;5.194;2022-09-17T17:55:04;4.10;;;1.98;;
53646;SDS011;39550;52.230;5.194;2022-09-17T17:57:30;4.38;;;1.95;;
53646;SDS011;39550;52.230;5.194;2022-09-17T17:59:55;6.32;;;2.22;;
53646;SDS011;39550;52.230;5.194;2022-09-17T18:02:21;5.18;;;2.25;;
53646;SDS011;39550;52.230;5.194;2022-09-17T18:04:46;5.60;;;2.05;;
53646;SDS011;39550;52.230;5.194;2022-09-17T18:07:11;5.10;;;2.03;;
53646;SDS011;39550;52.230;5.194;2022-09-17T18:09:37;5.13;;;2.10;;
53646;SDS011;39550;52.230;5.194;2022-09-17T18:12:02;5.75;;;2.17;;
53646;SDS011;39550;52.230;5.194;2022-09-17T18:14:28;5.00;;;2.60;;
53646;SDS011;39550;52.230;5.194;2022-09-17T18:16:53;4.85;;;1.92;;
53646;SDS011;39550;52.230;5.194;2022-09-17T18:19:18;4.85;;;1.90;;
53646;SDS011;39550;52.230;5.194;2022-09-17T18:21:44;7.00;;;2.20;;
53646;SDS011;39550;52.230;5.194;2022-09-17T18:24:09;7.45;;;2.55;;
53646;SDS011;39550;52.230;5.194;2022-09-17T18:26:35;4.68;;;1.83;;
53646;SDS011;39550;52.230;5.194;2022-09-17T18:29:00;4.95;;;2.20;;
53646;SDS011;39550;52.230;5.194;2022-09-17T18:31:27;6.00;;;1.98;;
53646;SDS011;39550;52.230;5.194;2022-09-17T18:33:54;3.90;;;1.77;;
53646;SDS011;39550;52.230;5.194;2022-09-17T18:36:22;3.10;;;1.77;;
53646;SDS011;39550;52.230;5.194;2022-09-17T18:38:51;6.15;;;2.03;;
53646;SDS011;39550;52.230;5.194;2022-09-17T18:41:22;5.35;;;2.22;;
53646;SDS011;39550;52.230;5.194;2022-09-17T18:43:48;6.00;;;2.17;;
53646;SDS011;39550;52.230;5.194;2022-09-17T18:46:14;5.45;;;2.35;;
53646;SDS011;39550;52.230;5.194;2022-09-17T18:48:39;3.80;;;2.00;;
53646;SDS011;39550;52.230;5.194;2022-09-17T18:51:06;3.92;;;2.05;;
53646;SDS011;39550;52.230;5.194;2022-09-17T18:53:33;5.85;;;2.33;;
53646;SDS011;39550;52.230;5.194;2022-09-17T18:56:19;4.20;;;2.10;;